Collins Center, New York
Current Conditions -  °F | °C
As of 12:53 PM on Tuesday 21 Oct 2014 (Local Time) from KDKK Reporting Station
Overcast Overcast  
Wind Chill: 54°   Ceiling: 2700
Heat Index: 54°   Visibility: 10mi
Dew Point: 47°   Wind: 9mph
Humidity: 77%   Direction: 290°WNW
Pressure: 29.87"   Gusts: 17mph
Location:  42.49°N, 78.85°W
Report Text: KDKK 211653Z AUTO 29008G15KT 10SM FEW015 SCT021 OVC027 12/08 A2987 RMK AO2 SLP117 T01220083
Loading
Personal Weather Stations






























Interactive Weather Map
Tropical Storm Tracking
New forecast layout! Learn more

10-Day Weather Forecast

Advertisements
Track Severe Weather on mobile